Terminal Aerodrome Forecast
Issued by NWS Sioux Falls, SD

Home | Current Version | Previous Version | Text Only | Print | Product List | Glossary On
Versions: 1 2 3 4 5 6 7 8 9 10 11 12
000
FTUS43 KFSD 040527
TAFHON
TAF
KHON 040527Z 0406/0506 14010KT P6SM BKN200
     FM041600 17014G20KT P6SM SCT060 BKN200 PROB30 0416/0419 -TSRA
      BKN060CB=

USA.gov is the U.S. government's official web portal to all federal, state and local government web resources and services.